Raleigh, NC

8:14 AM EST on March 01, 2015 (GMT -0500)
North Raleigh (Falls Lake) | Change Station
CLOSE
Current Station
Personal Weather Station
Location: Raleigh, NC
Elevation: 300 ft
Nearby Weather Stations
Active Advisory: Winter Weather Advisory Active Notice: Local Storm Report

Elev 300 ft 35.93 °N, 78.61 °W | Updated 4 minutes ago

Ice Pellets
Ice Pellets
30.0 °F
Feels Like 30 °F
N
0.0
Wind Variable Wind from WNW
Gusts 3.0 mph

Today
High -- | Low -- °F
--% Chance of Precip.
Yesterday
High -- | Low -- °F
Precip. -- in
6:44 AM 6:09 PM
Waxing Gibbous, 85% visible
Pressure 30.60 in
Visibility 1.5 miles
Clouds Scattered Clouds 600 ft
Overcast 1700 ft
Windchill 30 °F
Dew Point 28 °F
Humidity 93%
Rainfall 0.00 in
Snow Depth Not available.
UV 0 out of 12
Pollen .80 out of 12
Air Quality Not available.
Flu Activity Not available.
SPECI KRDU 011301Z 04009KT 1 1/2SM FZRA BR SCT006 OVC017 M01/M03 A3060 RMK AO2 SFC VIS 2 P0006

More Conditions Fewer Conditions

Pressure 30.60 in
Visibility 1.5 miles
Clouds Scattered Clouds 600 ft
Overcast 1700 ft
Windchill 30 °F
Dew Point 28 °F
Humidity 93%
Rainfall 0.00 in
Snow Depth Not available.
UV 0 out of 12
Pollen .80 out of 12
Air Quality Not available.
Flu Activity Not available.
SPECI KRDU 011301Z 04009KT 1 1/2SM FZRA BR SCT006 OVC017 M01/M03 A3060 RMK AO2 SFC VIS 2 P0006

More Conditions Fewer Conditions

10-Day Weather Forecast

Almanac

Astronomy

Mar. 01, 2015 Rise Set
Actual Time
Civil Twilight
Nautical Twilight
Astronomical Twilight
Moon
Length of Visible Light
Length of Day
Tomorrow will be .
, % of the Moon is Illuminated

Today's Extremes

State Highs State Lows

Community

WunderPhotos

Upload Photos

1,801,374 photos uploaded!

WunderBlogs® & News

Nearby

Air Quality

  Air Quality AQ Index Pollutant
Not available.

Snow Depth

Station Depth Elevation

Earthquake Activity

City Distance Mag. Time & Date
Minimum magnitude displayed is 2.5.

Coastal Water Temperatures

Place Temperature

Nearby Weather Stations

Winter Weather Advisory
Statement as of 4:15 AM EST on March 01, 2015

... Winter Weather Advisory remains in effect until noon EST
today...

* locations... include much of the Piedmont of NC and the northern
coastal plain.

* Hazard types... light freezing rain and freezing drizzle.

* Accumulations... ice accrual of less than a tenth of an inch.

* Timing... through this morning.

* Impacts... a thin coating of ice on roads and sidewalks will make
travel and walking treacherous this morning.

* Temperatures... in the lower 30s.

Precautionary/preparedness actions...

This Winter Weather Advisory means that periods of freezing rain
or freezing drizzle will cause travel difficulties. Be prepared
for slippery roads... and use extra caution while driving.